createdAt,value
2023-04-11T00:01:57.574Z,99039.63
2023-04-11T00:04:25.695Z,99036.25
2023-04-11T00:06:52.601Z,99016.31
2023-04-11T00:09:19.582Z,99064.59
2023-04-11T00:11:46.420Z,99009.31
2023-04-11T00:14:13.354Z,99021.59
2023-04-11T00:16:41.637Z,99026.13
2023-04-11T00:19:09.645Z,99078.09
2023-04-11T00:21:40.282Z,99055.34
2023-04-11T00:24:08.449Z,99047.34
2023-04-11T00:26:35.627Z,99077.97
2023-04-11T00:29:02.398Z,99022.50
2023-04-11T00:31:29.265Z,99010.84
2023-04-11T00:33:56.026Z,99029.38
2023-04-11T00:36:22.920Z,98990.28
2023-04-11T00:38:49.784Z,98935.44
2023-04-11T00:41:16.528Z,99026.19
2023-04-11T00:43:43.413Z,99051.91
2023-04-11T00:46:10.685Z,99033.06
2023-04-11T00:48:37.681Z,99066.00
2023-04-11T00:51:04.562Z,99036.81
2023-04-11T00:53:33.022Z,99071.81
2023-04-11T00:56:00.764Z,99087.19
2023-04-11T00:58:28.676Z,99123.09
2023-04-11T01:00:55.963Z,99117.75
2023-04-11T01:03:23.047Z,99101.28
2023-04-11T01:05:52.504Z,99075.78
2023-04-11T01:08:20.901Z,99131.06
2023-04-11T01:10:48.080Z,99096.84
2023-04-11T01:13:15.542Z,99080.41
2023-04-11T01:15:42.453Z,99062.47
2023-04-11T01:18:09.667Z,99090.19
2023-04-11T01:20:38.541Z,99110.69
2023-04-11T01:23:06.528Z,99085.34
2023-04-11T01:25:33.319Z,99152.09
2023-04-11T01:28:00.158Z,99096.47
2023-04-11T01:30:26.911Z,99104.13
2023-04-11T01:32:53.890Z,99119.97
2023-04-11T01:35:20.892Z,99107.63
2023-04-11T01:37:47.676Z,99105.03
2023-04-11T01:40:18.769Z,99100.44
2023-04-11T01:42:47.028Z,99134.22
2023-04-11T01:45:14.285Z,99108.66
2023-04-11T01:47:41.172Z,99145.78
2023-04-11T01:50:08.475Z,99118.84
2023-04-11T01:52:35.249Z,99093.94
2023-04-11T01:55:02.294Z,99088.91
2023-04-11T01:57:29.103Z,99142.69
2023-04-11T01:59:55.837Z,99156.50
2023-04-11T02:02:22.744Z,99138.81
2023-04-11T02:04:49.636Z,99079.94
2023-04-11T02:07:16.390Z,99143.56
2023-04-11T02:09:43.107Z,99136.97
2023-04-11T02:12:09.946Z,99144.41
2023-04-11T02:14:45.396Z,99168.19
2023-04-11T02:17:13.164Z,99136.28
2023-04-11T02:19:41.378Z,99144.41
2023-04-11T02:22:11.376Z,99151.69
2023-04-11T02:24:38.793Z,99120.16
2023-04-11T02:27:05.504Z,99127.28
2023-04-11T02:29:32.627Z,99139.97
2023-04-11T02:31:59.587Z,99156.28
2023-04-11T02:34:26.759Z,99169.38
2023-04-11T02:36:53.660Z,99155.31
2023-04-11T02:39:26.834Z,99202.47
2023-04-11T02:41:53.524Z,99166.09
2023-04-11T02:44:20.463Z,99123.72
2023-04-11T02:46:47.311Z,99156.88
2023-04-11T02:49:14.076Z,99125.78
2023-04-11T02:51:41.160Z,99162.47
2023-04-11T02:54:08.420Z,99201.78
2023-04-11T02:56:37.980Z,99166.13
2023-04-11T02:59:07.080Z,99168.94
2023-04-11T03:01:34.420Z,99130.13
2023-04-11T03:04:01.307Z,99214.63
2023-04-11T03:06:28.321Z,99148.22
2023-04-11T03:08:56.205Z,99204.03
2023-04-11T03:11:23.342Z,99184.56
2023-04-11T03:13:50.062Z,99123.31
2023-04-11T03:16:16.856Z,99145.75
2023-04-11T03:18:43.631Z,99167.19
2023-04-11T03:21:11.627Z,99206.09
2023-04-11T03:23:38.975Z,99198.28
2023-04-11T03:26:06.653Z,99158.88
2023-04-11T03:28:33.748Z,99206.78
2023-04-11T03:31:00.695Z,99163.88
2023-04-11T03:33:27.553Z,99149.19
2023-04-11T03:35:54.438Z,99147.06
2023-04-11T03:38:21.431Z,99132.66
2023-04-11T03:40:48.364Z,99144.34
2023-04-11T03:43:16.977Z,99160.56
2023-04-11T03:45:43.924Z,99189.97
2023-04-11T03:48:10.698Z,99182.78
2023-04-11T03:50:37.594Z,99192.41
2023-04-11T03:53:04.571Z,99158.03
2023-04-11T03:55:31.659Z,99201.88
2023-04-11T03:57:58.365Z,99178.44
2023-04-11T04:00:25.137Z,99179.91
2023-04-11T04:02:52.039Z,99183.75
2023-04-11T04:05:19.059Z,99161.03
2023-04-11T04:07:46.042Z,99186.28
2023-04-11T04:10:12.891Z,99197.94
2023-04-11T04:12:40.116Z,99179.41
2023-04-11T04:15:07.371Z,99210.88
2023-04-11T04:17:34.090Z,99201.72
2023-04-11T04:20:01.086Z,99230.31
2023-04-11T04:22:29.919Z,99245.41
2023-04-11T04:24:58.334Z,99189.38
2023-04-11T04:27:32.599Z,99214.56
2023-04-11T04:30:04.206Z,99203.44
2023-04-11T04:32:31.502Z,99167.16
2023-04-11T04:34:58.800Z,99201.50
2023-04-11T04:37:27.427Z,99243.78
2023-04-11T04:39:55.636Z,99212.66
2023-04-11T04:42:27.658Z,99242.84
2023-04-11T04:44:56.255Z,99199.94
2023-04-11T04:47:24.861Z,99215.19
2023-04-11T04:49:57.389Z,99206.50
2023-04-11T04:52:25.851Z,99256.91
2023-04-11T04:54:53.393Z,99246.97
2023-04-11T04:57:20.132Z,99256.00
2023-04-11T04:59:47.263Z,99228.72
2023-04-11T05:02:14.000Z,99268.16
2023-04-11T05:04:42.178Z,99228.31
2023-04-11T05:07:08.994Z,99205.88
2023-04-11T05:09:35.788Z,99275.47
2023-04-11T05:12:02.727Z,99227.97
2023-04-11T05:14:29.424Z,99205.19
2023-04-11T05:16:56.167Z,99244.28
2023-04-11T05:19:22.966Z,99209.13
2023-04-11T05:21:49.680Z,99237.44
2023-04-11T05:24:16.688Z,99223.38
2023-04-11T05:26:43.613Z,99264.44
2023-04-11T05:29:12.030Z,99274.66
2023-04-11T05:31:38.757Z,99221.50
2023-04-11T05:34:05.522Z,99269.69
2023-04-11T05:36:32.511Z,99267.38
2023-04-11T05:38:59.258Z,99285.81
2023-04-11T05:41:27.079Z,99272.44
2023-04-11T05:43:54.065Z,99254.50
2023-04-11T05:46:21.277Z,99235.66
2023-04-11T05:48:48.069Z,99235.94
2023-04-11T05:51:14.745Z,99292.47
2023-04-11T05:53:41.549Z,99309.19
2023-04-11T05:56:08.640Z,99286.03
2023-04-11T05:58:37.107Z,99307.44
2023-04-11T06:01:03.918Z,99275.09
2023-04-11T06:03:30.845Z,99210.91
2023-04-11T06:05:57.746Z,99221.00
2023-04-11T06:08:24.529Z,99288.31
2023-04-11T06:10:51.296Z,99267.38
2023-04-11T06:13:18.155Z,99333.06
2023-04-11T06:15:44.882Z,99311.78
2023-04-11T06:18:13.066Z,99346.44
2023-04-11T06:20:39.755Z,99308.81
2023-04-11T06:23:06.556Z,99295.16
2023-04-11T06:25:33.261Z,99244.22
2023-04-11T06:27:59.940Z,99302.25
2023-04-11T06:30:26.626Z,99345.41
2023-04-11T06:32:53.634Z,99321.44
2023-04-11T06:35:24.892Z,99305.31
2023-04-11T06:37:52.423Z,99319.69
2023-04-11T06:40:20.727Z,99281.88
2023-04-11T06:42:47.821Z,99289.16
2023-04-11T06:45:14.803Z,99333.41
2023-04-11T06:47:41.619Z,99273.53
2023-04-11T06:50:08.723Z,99321.81
2023-04-11T06:52:35.540Z,99303.25
2023-04-11T06:55:02.298Z,99316.91
2023-04-11T06:57:29.105Z,99281.03
2023-04-11T06:59:56.066Z,99321.88
2023-04-11T07:02:25.364Z,99322.75
2023-04-11T07:04:52.927Z,99321.06
2023-04-11T07:07:19.752Z,99350.97
2023-04-11T07:09:47.715Z,99323.75
2023-04-11T07:12:14.481Z,99335.03
2023-04-11T07:14:41.183Z,99323.91
2023-04-11T07:17:07.989Z,99311.94
2023-04-11T07:19:34.715Z,99341.06
2023-04-11T07:22:01.608Z,99334.16
2023-04-11T07:24:30.633Z,99313.28
2023-04-11T07:27:01.930Z,99369.28
2023-04-11T07:29:29.141Z,99321.75
2023-04-11T07:31:56.096Z,99270.97
2023-04-11T07:34:22.862Z,99286.19
2023-04-11T07:36:50.236Z,99329.09
2023-04-11T07:39:17.192Z,99342.41
2023-04-11T07:41:44.954Z,99368.47
2023-04-11T07:44:11.888Z,99359.41
2023-04-11T07:46:38.596Z,99381.78
2023-04-11T07:49:05.571Z,99376.00
2023-04-11T07:51:33.198Z,99338.53
2023-04-11T07:54:00.160Z,99311.56
2023-04-11T07:56:26.986Z,99304.81
2023-04-11T07:58:53.806Z,99344.78
2023-04-11T08:01:25.884Z,99329.72
2023-04-11T08:03:56.885Z,99335.13
2023-04-11T08:06:24.131Z,99317.81
2023-04-11T08:08:51.233Z,99412.50
2023-04-11T08:11:20.652Z,99318.78
2023-04-11T08:13:47.436Z,99360.38
2023-04-11T08:16:15.932Z,99382.88
2023-04-11T08:18:42.879Z,99396.94
2023-04-11T08:21:12.394Z,99374.34
2023-04-11T08:23:43.091Z,99398.53
2023-04-11T08:26:12.090Z,99349.34
2023-04-11T08:28:41.092Z,99343.06
2023-04-11T08:31:10.778Z,99391.56
2023-04-11T08:37:19.251Z,99393.06
2023-04-11T08:39:46.070Z,99354.63
2023-04-11T08:42:25.918Z,99399.25
2023-04-11T08:45:00.892Z,99417.00
2023-04-11T08:47:27.838Z,99348.88
2023-04-11T08:49:55.149Z,99399.31
2023-04-11T08:52:21.948Z,99367.06
2023-04-11T08:54:49.174Z,99374.94
2023-04-11T08:57:28.554Z,99355.84
2023-04-11T08:59:56.963Z,99355.19
2023-04-11T09:02:24.362Z,99387.59
2023-04-11T09:04:51.996Z,99368.13
2023-04-11T09:07:19.722Z,99366.22
2023-04-11T09:09:46.682Z,99398.34
2023-04-11T09:12:13.733Z,99361.13
2023-04-11T09:14:43.427Z,99358.53
2023-04-11T09:17:13.749Z,99325.94
2023-04-11T09:19:46.891Z,99355.28
2023-04-11T09:22:15.739Z,99340.91
2023-04-11T09:24:43.057Z,99349.75
2023-04-11T09:27:19.678Z,99399.22
2023-04-11T09:29:48.312Z,99380.69
2023-04-11T09:32:33.706Z,99366.69
2023-04-11T09:35:24.121Z,99399.03
2023-04-11T09:37:52.929Z,99389.91
2023-04-11T09:40:23.190Z,99376.75
2023-04-11T09:43:00.615Z,99346.78
2023-04-11T09:45:28.650Z,99368.97
2023-04-11T09:47:58.323Z,99341.53
2023-04-11T09:50:26.944Z,99361.75
2023-04-11T09:52:57.079Z,99372.03
2023-04-11T09:55:26.110Z,99336.50
2023-04-11T09:57:54.768Z,99335.25
2023-04-11T10:00:24.397Z,99347.19
2023-04-11T10:02:53.740Z,99367.44
2023-04-11T10:05:27.098Z,99325.75
2023-04-11T10:08:06.212Z,99370.41
2023-04-11T10:10:33.233Z,99339.41
2023-04-11T10:13:00.018Z,99293.84
2023-04-11T10:15:27.192Z,99311.19
2023-04-11T10:18:13.856Z,99361.72
2023-04-11T10:20:45.321Z,99365.41
2023-04-11T10:23:14.073Z,99371.28
2023-04-11T10:25:51.786Z,99347.00
2023-04-11T10:28:30.722Z,99361.84
2023-04-11T10:31:04.797Z,99372.03
2023-04-11T10:33:33.647Z,99331.53
2023-04-11T10:36:12.475Z,99356.31
2023-04-11T10:38:47.415Z,99362.19
2023-04-11T10:41:25.688Z,99353.44
2023-04-11T10:43:52.920Z,99297.97
2023-04-11T10:46:22.031Z,99373.31
2023-04-11T10:49:02.873Z,99333.91
2023-04-11T10:51:31.620Z,99366.03
2023-04-11T10:54:00.363Z,99357.34
2023-04-11T10:56:50.742Z,99344.19
2023-04-11T10:59:32.766Z,99345.41
2023-04-11T11:02:03.443Z,99343.47
2023-04-11T11:04:37.411Z,99271.97
2023-04-11T11:07:06.437Z,99343.88
2023-04-11T11:09:34.839Z,99337.84
2023-04-11T11:12:08.623Z,99341.06
2023-04-11T11:14:35.879Z,99300.38
2023-04-11T11:17:03.568Z,99283.56
2023-04-11T11:19:31.253Z,99348.03
2023-04-11T11:22:03.871Z,99329.25
2023-04-11T11:24:31.260Z,99266.66
2023-04-11T11:26:58.512Z,99306.88
2023-04-11T11:29:35.779Z,99247.47
2023-04-11T11:32:04.105Z,99265.97
2023-04-11T11:34:35.257Z,99320.75
2023-04-11T11:37:06.694Z,99246.63
2023-04-11T11:39:34.800Z,99308.66
2023-04-11T11:42:02.149Z,99297.59
2023-04-11T11:44:31.270Z,99279.16
2023-04-11T11:47:02.220Z,99330.69
2023-04-11T11:49:46.706Z,99339.59
2023-04-11T11:52:40.687Z,99316.72
2023-04-11T11:55:19.779Z,99336.28
2023-04-11T11:57:47.775Z,99281.56
2023-04-11T12:00:16.423Z,99336.66
2023-04-11T12:02:44.717Z,99292.94
2023-04-11T12:05:12.581Z,99315.06
2023-04-11T12:07:40.678Z,99335.97
2023-04-11T12:10:11.868Z,99334.28
2023-04-11T12:12:41.204Z,99247.75
2023-04-11T12:15:11.797Z,99325.34
2023-04-11T12:17:39.102Z,99288.50
2023-04-11T12:20:08.056Z,99319.72
2023-04-11T12:22:35.771Z,99324.56
2023-04-11T12:25:14.160Z,99353.28
2023-04-11T12:27:42.787Z,99334.06
2023-04-11T12:30:11.080Z,99306.44
2023-04-11T12:32:38.666Z,99330.25
2023-04-11T12:35:07.135Z,99358.38
2023-04-11T12:37:35.183Z,99347.19
2023-04-11T12:40:10.928Z,99302.38
2023-04-11T12:42:53.580Z,99319.88
2023-04-11T12:45:23.251Z,99323.28
2023-04-11T12:47:50.204Z,99307.53
2023-04-11T12:50:16.987Z,99318.78
2023-04-11T12:52:43.669Z,99292.94
2023-04-11T12:55:10.669Z,99309.97
2023-04-11T12:57:37.342Z,99325.22
2023-04-11T13:00:07.425Z,99293.69
2023-04-11T13:02:42.032Z,99284.09
2023-04-11T13:05:11.262Z,99258.03
2023-04-11T13:07:38.044Z,99327.69
2023-04-11T13:10:07.975Z,99282.72
2023-04-11T13:12:39.824Z,99326.16
2023-04-11T13:15:08.139Z,99276.22
2023-04-11T13:17:35.193Z,99290.16
2023-04-11T13:20:02.283Z,99265.50
2023-04-11T13:22:28.909Z,99287.34
2023-04-11T13:24:55.794Z,99312.59
2023-04-11T13:27:23.131Z,99254.81
2023-04-11T13:29:49.834Z,99257.88
2023-04-11T13:32:16.632Z,99273.09
2023-04-11T13:34:43.555Z,99308.16
2023-04-11T13:37:10.329Z,99218.81
2023-04-11T13:39:39.898Z,99254.66
2023-04-11T13:42:06.562Z,99243.63
2023-04-11T13:44:33.275Z,99282.41
2023-04-11T13:47:00.055Z,99230.38
2023-04-11T13:49:26.749Z,99255.34
2023-04-11T13:51:53.386Z,99268.34
2023-04-11T13:54:20.252Z,99276.53
2023-04-11T13:56:46.874Z,99279.75
2023-04-11T13:59:13.556Z,99276.53
2023-04-11T14:04:56.780Z,99260.75
2023-04-11T14:07:23.770Z,99241.56
2023-04-11T14:09:50.793Z,99241.25
2023-04-11T14:12:18.202Z,99235.81
2023-04-11T14:14:44.819Z,99220.13
2023-04-11T14:17:11.617Z,99203.00
2023-04-11T14:19:38.327Z,99211.63
2023-04-11T14:22:05.039Z,99177.38
2023-04-11T14:24:31.748Z,99167.84
2023-04-11T14:26:58.592Z,99202.22
2023-04-11T14:29:26.509Z,99188.50
2023-04-11T14:31:53.339Z,99182.63
2023-04-11T14:34:20.037Z,99186.81
2023-04-11T14:36:46.842Z,99197.66
2023-04-11T14:39:13.565Z,99161.72
2023-04-11T14:41:40.396Z,99154.06
2023-04-11T14:44:07.263Z,99165.84
2023-04-11T14:46:35.520Z,99194.72
2023-04-11T14:49:03.131Z,99171.38
2023-04-11T14:51:29.858Z,99105.69
2023-04-11T14:53:57.071Z,99158.75
2023-04-11T14:56:24.841Z,99146.72
2023-04-11T14:58:52.291Z,99129.75
2023-04-11T15:01:20.285Z,99160.28
2023-04-11T15:03:47.407Z,99142.34
2023-04-11T15:06:14.429Z,99111.19
2023-04-11T15:08:41.330Z,99162.06
2023-04-11T15:11:08.554Z,99129.22
2023-04-11T15:13:35.284Z,99131.72
2023-04-11T15:16:03.014Z,99115.44
2023-04-11T15:18:31.119Z,99110.38
2023-04-11T15:20:59.396Z,99112.06
2023-04-11T15:23:26.634Z,99145.41
2023-04-11T15:25:54.542Z,99149.13
2023-04-11T15:28:22.324Z,99150.94
2023-04-11T15:30:56.840Z,99154.03
2023-04-11T15:33:24.418Z,99141.88
2023-04-11T15:35:53.838Z,99103.66
2023-04-11T15:38:21.458Z,99110.25
2023-04-11T15:40:56.681Z,99144.38
2023-04-11T15:43:24.053Z,99100.72
2023-04-11T15:45:52.484Z,99132.53
2023-04-11T15:48:19.208Z,99090.34
2023-04-11T15:50:46.039Z,99119.56
2023-04-11T15:53:12.897Z,99061.75
2023-04-11T15:55:41.442Z,99133.81
2023-04-11T15:58:08.673Z,99142.47
2023-04-11T16:00:39.788Z,99125.88
2023-04-11T16:03:08.743Z,99105.81
2023-04-11T16:05:41.001Z,99128.75
2023-04-11T16:08:07.974Z,99138.97
2023-04-11T16:10:35.115Z,99125.56
2023-04-11T16:13:02.562Z,99057.03
2023-04-11T16:15:29.278Z,99086.94
2023-04-11T16:17:56.115Z,99119.22
2023-04-11T16:20:23.014Z,99083.47
2023-04-11T16:22:49.712Z,99059.19
2023-04-11T16:25:19.511Z,99064.25
2023-04-11T16:27:46.456Z,99083.47
2023-04-11T16:30:13.396Z,99042.78
2023-04-11T16:32:40.094Z,99074.78
2023-04-11T16:35:07.202Z,99068.97
2023-04-11T16:37:33.954Z,99051.88
2023-04-11T16:40:01.032Z,99037.19
2023-04-11T16:42:27.762Z,99057.88
2023-04-11T16:44:54.440Z,99023.84
2023-04-11T16:47:26.326Z,98990.78
2023-04-11T16:49:53.600Z,99015.75
2023-04-11T16:52:21.230Z,98998.97
2023-04-11T16:54:48.059Z,99055.69
2023-04-11T16:57:14.705Z,99002.13
2023-04-11T16:59:41.464Z,98970.66
2023-04-11T17:02:08.166Z,98994.56
2023-04-11T17:04:35.306Z,98966.25
2023-04-11T17:07:02.118Z,99000.84
2023-04-11T17:09:29.788Z,99014.16
2023-04-11T17:11:57.810Z,98998.66
2023-04-11T17:14:24.723Z,98954.31
2023-04-11T17:16:51.714Z,98933.78
2023-04-11T17:19:18.421Z,98949.50
2023-04-11T17:21:45.104Z,98967.66
2023-04-11T17:24:11.929Z,98991.72
2023-04-11T17:26:38.631Z,98968.75
2023-04-11T17:29:06.630Z,98974.41
2023-04-11T17:31:34.097Z,99023.75
2023-04-11T17:34:00.829Z,99015.03
2023-04-11T17:36:28.450Z,98979.28
2023-04-11T17:38:55.165Z,98987.91
2023-04-11T17:41:23.008Z,98975.00
2023-04-11T17:43:49.720Z,98974.56
2023-04-11T17:46:16.424Z,98917.94
2023-04-11T17:48:43.328Z,98967.75
2023-04-11T17:51:10.019Z,98954.38
2023-04-11T17:53:37.098Z,98965.72
2023-04-11T17:56:06.077Z,98962.09
2023-04-11T17:58:33.099Z,98912.22
2023-04-11T18:00:59.850Z,98961.75
2023-04-11T18:03:26.702Z,98910.41
2023-04-11T18:05:54.630Z,98918.03
2023-04-11T18:08:28.713Z,98934.41
2023-04-11T18:11:00.436Z,98837.00
2023-04-11T18:13:27.655Z,98886.06
2023-04-11T18:15:54.593Z,98915.44
2023-04-11T18:18:21.374Z,98889.59
2023-04-11T18:20:48.529Z,98875.72
2023-04-11T18:23:15.388Z,98852.50
2023-04-11T18:25:42.152Z,98913.94
2023-04-11T18:28:08.922Z,98825.59
2023-04-11T18:30:35.723Z,98846.44
2023-04-11T18:33:02.512Z,98820.78
2023-04-11T18:35:29.249Z,98829.03
2023-04-11T18:37:56.053Z,98859.94
2023-04-11T18:40:22.917Z,98811.19
2023-04-11T18:42:53.276Z,98868.72
2023-04-11T18:45:22.019Z,98835.72
2023-04-11T18:47:49.171Z,98785.53
2023-04-11T18:50:17.912Z,98807.84
2023-04-11T18:52:45.863Z,98839.63
2023-04-11T18:55:14.315Z,98800.41
2023-04-11T18:57:42.227Z,98773.06
2023-04-11T19:00:18.905Z,98765.28
2023-04-11T19:02:47.154Z,98753.91
2023-04-11T19:05:14.628Z,98755.69
2023-04-11T19:07:42.875Z,98782.13
2023-04-11T19:10:11.293Z,98728.59
2023-04-11T19:12:38.254Z,98713.22
2023-04-11T19:15:09.356Z,98768.81
2023-04-11T19:17:38.500Z,98762.38
2023-04-11T19:20:13.399Z,98754.56
2023-04-11T19:22:43.146Z,98735.81
2023-04-11T19:25:11.444Z,98757.81
2023-04-11T19:27:40.464Z,98713.28
2023-04-11T19:30:08.884Z,98731.28
2023-04-11T19:32:38.695Z,98743.50
2023-04-11T19:35:08.880Z,98724.84
2023-04-11T19:37:36.407Z,98670.59
2023-04-11T19:40:07.345Z,98701.28
2023-04-11T19:42:37.023Z,98713.91
2023-04-11T19:45:04.870Z,98632.19
2023-04-11T19:47:32.260Z,98626.59
2023-04-11T19:50:01.112Z,98609.75
2023-04-11T19:52:28.802Z,98598.03
2023-04-11T19:54:56.992Z,98620.44
2023-04-11T19:57:26.567Z,98606.00
2023-04-11T19:59:53.386Z,98571.69
2023-04-11T20:02:21.298Z,98563.88
2023-04-11T20:04:48.258Z,98629.00
2023-04-11T20:07:15.869Z,98612.97
2023-04-11T20:09:42.556Z,98577.22
2023-04-11T20:12:09.526Z,98581.06
2023-04-11T20:14:38.097Z,98581.03
2023-04-11T20:17:06.432Z,98596.22
2023-04-11T20:19:33.358Z,98549.72
2023-04-11T20:22:01.188Z,98535.31
2023-04-11T20:24:28.305Z,98561.41
2023-04-11T20:26:57.176Z,98533.47
2023-04-11T20:29:24.877Z,98485.56
2023-04-11T20:31:51.620Z,98523.22
2023-04-11T20:34:18.311Z,98519.19
2023-04-11T20:36:45.100Z,98515.75
2023-04-11T20:39:11.863Z,98484.84
2023-04-11T20:41:40.633Z,98452.91
2023-04-11T20:44:07.436Z,98493.25
2023-04-11T20:46:39.621Z,98467.28
2023-04-11T20:49:07.211Z,98442.47
2023-04-11T20:51:34.733Z,98457.28
2023-04-11T20:54:01.529Z,98426.44
2023-04-11T20:56:28.499Z,98405.75
2023-04-11T20:58:55.170Z,98407.28
2023-04-11T21:01:22.697Z,98396.25
2023-04-11T21:03:51.512Z,98386.22
2023-04-11T21:06:18.326Z,98387.66
2023-04-11T21:08:45.056Z,98395.06
2023-04-11T21:11:11.750Z,98356.56
2023-04-11T21:13:38.420Z,98380.91
2023-04-11T21:16:05.730Z,98343.66
2023-04-11T21:18:32.554Z,98338.25
2023-04-11T21:20:59.345Z,98281.44
2023-04-11T21:23:26.044Z,98310.25
2023-04-11T21:25:52.732Z,98283.44
2023-04-11T21:28:19.604Z,98337.56
2023-04-11T21:30:46.436Z,98327.56
2023-04-11T21:33:13.208Z,98252.91
2023-04-11T21:35:39.914Z,98294.19
2023-04-11T21:38:06.694Z,98250.13
2023-04-11T21:40:33.393Z,98273.16
2023-04-11T21:43:00.524Z,98287.69
2023-04-11T21:45:27.608Z,98269.78
2023-04-11T21:47:54.567Z,98238.50
2023-04-11T21:50:21.324Z,98203.44
2023-04-11T21:52:48.130Z,98229.28
2023-04-11T21:55:15.593Z,98202.81
2023-04-11T21:57:42.346Z,98214.00
2023-04-11T22:00:11.161Z,98220.94
2023-04-11T22:02:38.876Z,98235.03
2023-04-11T22:05:08.886Z,98183.28
2023-04-11T22:07:48.703Z,98164.28
2023-04-11T22:10:22.522Z,98123.19
2023-04-11T22:12:50.014Z,98092.56
2023-04-11T22:15:18.453Z,98102.47
2023-04-11T22:17:50.630Z,98142.53
2023-04-11T22:20:18.440Z,98108.31
2023-04-11T22:22:45.390Z,98155.88
2023-04-11T22:25:12.163Z,98150.50
2023-04-11T22:27:38.968Z,98141.97
2023-04-11T22:30:07.041Z,98121.72
2023-04-11T22:32:34.140Z,98145.56
2023-04-11T22:35:01.338Z,98119.13
2023-04-11T22:37:28.107Z,98085.06
2023-04-11T22:39:55.173Z,98052.69
2023-04-11T22:42:21.954Z,98069.03
2023-04-11T22:44:48.667Z,98025.28
2023-04-11T22:47:16.631Z,98047.41
2023-04-11T22:49:44.992Z,97979.41
2023-04-11T22:52:15.758Z,98001.00
2023-04-11T22:54:43.203Z,97977.81
2023-04-11T22:57:10.472Z,98003.16
2023-04-11T22:59:37.237Z,97941.56
2023-04-11T23:02:04.108Z,97955.38
2023-04-11T23:04:32.139Z,97902.63
2023-04-11T23:07:00.186Z,97927.28
2023-04-11T23:09:28.206Z,97851.47
2023-04-11T23:11:55.016Z,97899.84
2023-04-11T23:14:22.520Z,97862.50
2023-04-11T23:16:49.449Z,97816.19
2023-04-11T23:19:17.236Z,97855.94
2023-04-11T23:21:44.727Z,97833.78
2023-04-11T23:24:11.421Z,97848.22
2023-04-11T23:26:38.128Z,97772.75
2023-04-11T23:29:04.825Z,97768.56
2023-04-11T23:31:32.697Z,97738.94
2023-04-11T23:34:00.758Z,97764.59
2023-04-11T23:36:28.024Z,97720.72
2023-04-11T23:38:54.964Z,97723.53
2023-04-11T23:41:21.754Z,97714.78
2023-04-11T23:43:48.505Z,97665.13
2023-04-11T23:46:16.899Z,97696.75
2023-04-11T23:48:44.358Z,97689.72
2023-04-11T23:51:11.073Z,97671.00
2023-04-11T23:53:37.735Z,97636.50
2023-04-11T23:56:04.866Z,97632.31
2023-04-11T23:58:31.604Z,97585.16
